Time;durP1;ratioP1;P1;durP2;ratioP2;P2;SDS_P1;SDS_P2;PMS_P1;PMS_P2;Temp;Humidity;BMP_temperature;BMP_pressure;BME280_temperature;BME280_humidity;BME280_pressure;Samples;Min_cycle;Max_cycle;Signal;HPM_P1;HPM_P2
2023/10/09 03:00:44;;;;;;;4.65;2.70;;;20.90;51.30;;;;;;6004385;23;46206;31
2023/10/09 03:03:10;;;;;;;3.67;2.70;;;20.90;51.40;;;;;;4830621;29;47109;-84
2023/10/09 03:05:42;;;;;;;3.55;2.65;;;20.90;51.40;;;;;;4859851;29;46432;-84
2023/10/09 03:08:08;;;;;;;4.57;2.97;;;20.90;51.40;;;;;;4880408;29;45094;-84
2023/10/09 03:10:34;;;;;;;4.68;2.90;;;20.90;51.40;;;;;;4850808;29;45388;-84
2023/10/09 03:13:03;;;;;;;4.50;2.77;;;20.90;51.40;;;;;;4834369;29;45623;-84
2023/10/09 03:15:35;;;;;;;3.28;2.70;;;20.90;51.30;;;;;;4849055;29;46260;-85
2023/10/09 03:18:02;;;;;;;4.22;2.88;;;20.90;51.40;;;;;;4848231;29;46191;-84
2023/10/09 03:20:30;;;;;;;3.70;2.90;;;20.90;51.40;;;;;;4840280;29;45352;-85
2023/10/09 03:22:57;;;;;;;4.03;2.72;;;20.90;51.40;;;;;;4861278;29;45987;-84
2023/10/09 03:25:25;;;;;;;3.17;2.53;;;20.90;51.40;;;;;;4841391;29;45977;-83
2023/10/09 03:27:52;;;;;;;4.28;2.90;;;20.90;51.40;;;;;;4847727;29;46737;-84
2023/10/09 03:30:24;;;;;;;4.55;3.00;;;20.90;51.40;;;;;;4827304;29;46483;-90
2023/10/09 03:32:51;;;;;;;3.75;2.90;;;20.90;51.40;;;;;;4832667;29;45271;-85
2023/10/09 03:35:24;;;;;;;3.60;2.80;;;20.90;51.40;;;;;;4816042;29;46423;-86
2023/10/09 03:38:00;;;;;;;4.70;3.05;;;20.90;51.40;;;;;;4861560;29;45174;-85
2023/10/09 03:40:27;;;;;;;3.33;2.58;;;20.90;51.40;;;;;;4848182;29;44804;-86
2023/10/09 03:42:53;;;;;;;4.20;2.95;;;20.90;51.40;;;;;;4844733;29;45373;-85
2023/10/09 03:45:25;;;;;;;4.53;2.95;;;20.90;51.40;;;;;;4853289;29;46627;-85
2023/10/09 03:48:14;;;;;;;3.85;2.80;;;20.90;51.40;;;;;;4824374;29;45200;-84
2023/10/09 03:50:43;;;;;;;5.07;2.97;;;20.90;51.40;;;;;;4843539;29;45241;-86
2023/10/09 03:53:12;;;;;;;4.35;2.83;;;20.90;51.40;;;;;;4846602;29;45510;-86
2023/10/09 03:55:39;;;;;;;3.67;2.92;;;20.90;51.40;;;;;;4858262;29;46068;-83
2023/10/09 03:58:11;;;;;;;4.75;3.30;;;20.90;51.40;;;;;;4837599;29;45384;-85
2023/10/09 04:00:48;;;;;;;3.72;2.70;;;20.90;51.40;;;;;;4830711;29;45088;-88
2023/10/09 04:03:15;;;;;;;4.10;2.97;;;20.90;51.40;;;;;;4874950;29;45811;-84
2023/10/09 04:05:42;;;;;;;4.15;2.83;;;20.90;51.40;;;;;;4844574;29;46654;-85
2023/10/09 04:08:28;;;;;;;3.63;2.90;;;20.90;51.40;;;;;;4848781;29;45447;-84
2023/10/09 04:11:01;;;;;;;4.63;3.00;;;20.90;51.40;;;;;;4848608;29;44688;-86
2023/10/09 04:13:33;;;;;;;4.03;3.08;;;20.90;51.40;;;;;;4833302;29;45761;-89
2023/10/09 04:16:10;;;;;;;4.03;3.13;;;20.90;51.40;;;;;;4855408;29;46074;-84
2023/10/09 04:18:38;;;;;;;3.65;2.72;;;20.90;51.00;;;;;;4833729;29;45416;-87
2023/10/09 04:21:33;;;;;;;4.37;3.20;;;20.90;51.50;;;;;;4842165;29;45430;-84
2023/10/09 04:26:39;;;;;;;5.20;3.17;;;20.80;51.40;;;;;;4855636;29;45145;-84
2023/10/09 04:29:06;;;;;;;4.22;2.63;;;20.90;51.40;;;;;;4830246;29;45178;-87
2023/10/09 04:31:32;;;;;;;3.20;2.63;;;20.90;51.40;;;;;;4838621;29;45289;-86
2023/10/09 04:37:01;;;;;;;4.20;3.10;;;20.90;51.40;;;;;;4841265;29;45839;-88
2023/10/09 04:47:37;;;;;;;4.07;2.75;;;20.80;51.40;;;;;;4856396;29;46807;-87
2023/10/09 04:55:53;;;;;;;4.43;2.95;;;20.90;51.50;;;;;;4858735;29;45228;-85
2023/10/09 04:58:44;;;;;;;4.13;2.80;;;20.80;51.40;;;;;;4832509;29;46009;-88
2023/10/09 05:01:13;;;;;;;4.82;3.10;;;20.80;51.40;;;;;;4847881;29;44616;-85
2023/10/09 05:06:21;;;;;;;6.35;3.15;;;20.90;51.40;;;;;;4876650;29;45723;-85
2023/10/09 05:08:54;;;;;;;4.30;3.22;;;20.80;51.40;;;;;;4882663;29;47339;-88
2023/10/09 05:14:12;;;;;;;4.45;3.10;;;20.90;51.50;;;;;;4870496;29;45260;-86
2023/10/09 05:16:53;;;;;;;4.85;3.08;;;20.80;51.40;;;;;;4865010;29;45127;-86
2023/10/09 05:22:16;;;;;;;3.83;2.95;;;20.90;51.50;;;;;;4869746;29;45344;-86
2023/10/09 05:24:47;;;;;;;3.47;2.78;;;20.90;51.40;;;;;;4854065;29;45552;-86
2023/10/09 05:27:19;;;;;;;4.55;3.15;;;20.80;51.40;;;;;;4879891;29;45088;-86
2023/10/09 05:30:12;;;;;;;3.80;3.10;;;20.80;51.40;;;;;;4832311;29;47070;-90
2023/10/09 05:32:48;;;;;;;4.78;3.10;;;20.80;51.40;;;;;;4866036;29;45814;-86
2023/10/09 05:35:29;;;;;;;3.47;2.88;;;20.80;51.40;;;;;;4860002;29;45289;-86
2023/10/09 05:38:02;;;;;;;4.23;3.10;;;20.80;51.40;;;;;;4880485;29;45492;-86
2023/10/09 05:40:31;;;;;;;4.20;2.80;;;20.80;51.40;;;;;;4849641;29;45091;-86
2023/10/09 05:42:59;;;;;;;4.90;3.28;;;20.80;51.40;;;;;;4843882;29;45656;-84
2023/10/09 05:51:10;;;;;;;4.82;2.90;;;20.80;51.40;;;;;;4867519;29;46382;-84
2023/10/09 06:04:49;;;;;;;4.63;3.10;;;20.80;51.40;;;;;;4886999;29;45437;-83
2023/10/09 06:07:12;;;;;;;5.77;3.20;;;20.80;51.40;;;;;;4878785;29;45251;-83
2023/10/09 06:09:49;;;;;;;4.93;3.15;;;20.80;51.40;;;;;;4855015;29;45596;-87
2023/10/09 06:17:50;;;;;;;3.70;2.97;;;20.80;51.40;;;;;;4868890;29;44871;-85
2023/10/09 06:23:15;;;;;;;3.40;2.92;;;20.80;51.40;;;;;;4860186;29;47508;-84
2023/10/09 06:25:50;;;;;;;4.50;3.30;;;20.80;51.40;;;;;;4852045;29;45711;-85
2023/10/09 06:28:18;;;;;;;4.47;3.13;;;20.80;51.40;;;;;;4869817;29;44800;-83
2023/10/09 06:30:47;;;;;;;4.25;3.08;;;20.80;51.40;;;;;;4875692;29;44772;-84
2023/10/09 06:33:19;;;;;;;4.35;3.10;;;20.80;51.40;;;;;;4869132;29;45099;-83
2023/10/09 06:36:17;;;;;;;5.68;3.60;;;20.80;51.40;;;;;;4869237;29;45647;-83
2023/10/09 06:39:08;;;;;;;4.13;3.10;;;20.80;51.40;;;;;;4865204;29;44656;-84
2023/10/09 06:41:34;;;;;;;4.82;3.75;;;20.80;51.40;;;;;;4869352;29;46295;-84
2023/10/09 06:44:05;;;;;;;5.43;3.60;;;20.80;51.40;;;;;;4839562;29;45562;-84
2023/10/09 06:46:43;;;;;;;4.78;3.30;;;20.80;51.40;;;;;;4843065;29;45530;-84
2023/10/09 06:49:28;;;;;;;6.23;3.77;;;20.80;51.40;;;;;;4835169;29;45067;-83
2023/10/09 06:52:08;;;;;;;5.47;3.20;;;20.80;51.40;;;;;;4851344;29;45236;-84
2023/10/09 06:54:37;;;;;;;4.88;3.72;;;20.80;51.40;;;;;;4869361;29;45287;-85
2023/10/09 06:57:30;;;;;;;4.87;3.70;;;20.80;51.40;;;;;;4835152;29;45239;-86
2023/10/09 07:00:51;;;;;;;4.43;3.38;;;20.80;51.40;;;;;;4864684;29;45422;-85
2023/10/09 07:03:11;;;;;;;4.72;3.75;;;20.80;51.40;;;;;;4878348;29;45001;-85
2023/10/09 07:06:00;;;;;;;5.53;3.90;;;20.80;51.40;;;;;;4848678;29;46400;-84
2023/10/09 07:08:32;;;;;;;5.30;3.67;;;20.80;51.40;;;;;;4852935;29;45410;-85
2023/10/09 07:11:21;;;;;;;5.03;3.90;;;20.80;51.40;;;;;;4878245;29;44939;-86
2023/10/09 07:13:54;;;;;;;5.50;4.20;;;20.80;51.40;;;;;;4878743;29;45409;-85
2023/10/09 07:16:38;;;;;;;6.00;3.78;;;20.80;51.40;;;;;;4861521;29;45150;-87
2023/10/09 07:19:24;;;;;;;4.47;3.50;;;20.80;51.40;;;;;;4851903;29;45369;-85
2023/10/09 07:21:54;;;;;;;4.82;3.80;;;20.80;51.40;;;;;;4863992;29;45305;-85
2023/10/09 07:24:24;;;;;;;5.25;3.70;;;20.80;51.40;;;;;;4866943;29;44774;-85
2023/10/09 07:26:53;;;;;;;6.85;4.22;;;20.80;51.40;;;;;;4866734;29;45625;-84
2023/10/09 07:29:47;;;;;;;5.00;3.88;;;20.80;51.40;;;;;;4850609;29;45286;-86
2023/10/09 07:32:22;;;;;;;4.63;4.00;;;20.80;51.40;;;;;;4843295;29;45662;-87
2023/10/09 07:34:58;;;;;;;6.38;4.03;;;20.80;51.40;;;;;;4878279;29;44866;-85
2023/10/09 07:37:30;;;;;;;5.75;3.50;;;20.80;51.40;;;;;;4880737;29;45209;-85
2023/10/09 07:40:08;;;;;;;4.82;3.40;;;20.80;51.40;;;;;;4868069;29;45214;-85
2023/10/09 07:50:30;;;;;;;5.22;3.85;;;20.80;51.40;;;;;;4863045;29;46846;-85
2023/10/09 07:53:14;;;;;;;4.27;3.60;;;20.80;51.50;;;;;;4853605;29;45379;-85
2023/10/09 07:55:45;;;;;;;4.90;3.87;;;20.80;51.40;;;;;;4857427;29;45215;-85
2023/10/09 07:58:45;;;;;;;5.18;3.65;;;20.80;51.40;;;;;;4865771;29;46411;-85
2023/10/09 08:01:34;;;;;;;5.18;3.80;;;20.80;51.40;;;;;;4868573;29;45411;-85
2023/10/09 08:04:13;;;;;;;6.75;3.90;;;20.80;51.40;;;;;;4852947;29;45240;-87
2023/10/09 08:06:39;;;;;;;4.75;3.80;;;20.80;51.40;;;;;;4854356;29;45674;-86
2023/10/09 08:14:42;;;;;;;4.88;3.70;;;20.80;51.40;;;;;;4863881;29;44831;-86
2023/10/09 08:17:20;;;;;;;5.40;3.95;;;20.80;51.40;;;;;;4876451;29;45524;-85
2023/10/09 08:19:57;;;;;;;5.90;4.05;;;20.80;51.40;;;;;;4849920;29;45929;-85
2023/10/09 08:24:55;;;;;;;5.05;3.83;;;20.80;51.40;;;;;;4863806;29;45563;-85
2023/10/09 08:32:42;;;;;;;5.97;4.03;;;20.80;51.40;;;;;;4862078;29;45249;-87
2023/10/09 08:37:53;;;;;;;5.53;4.10;;;20.70;51.40;;;;;;4861766;29;45181;-85
2023/10/09 08:40:21;;;;;;;6.20;4.00;;;20.80;51.40;;;;;;4835654;29;45468;-85
2023/10/09 08:42:53;;;;;;;6.20;3.47;;;20.80;51.40;;;;;;4866591;29;45362;-85
2023/10/09 08:45:27;;;;;;;5.67;3.90;;;20.80;51.40;;;;;;4855786;29;45685;-88
2023/10/09 08:47:55;;;;;;;5.85;3.60;;;20.80;51.40;;;;;;4870223;29;45290;-86
2023/10/09 08:50:21;;;;;;;4.93;3.60;;;20.80;51.40;;;;;;4833380;29;46316;-85
2023/10/09 08:52:50;;;;;;;5.45;3.50;;;20.80;51.50;;;;;;4862971;29;45327;-86
2023/10/09 08:55:18;;;;;;;4.10;3.40;;;20.80;51.50;;;;;;4829759;29;45335;-85
2023/10/09 08:57:46;;;;;;;5.72;3.88;;;20.80;51.40;;;;;;4866051;29;45302;-86
2023/10/09 09:00:23;;;;;;;4.57;3.70;;;20.80;51.50;;;;;;4861870;29;47246;-85
2023/10/09 09:02:56;;;;;;;5.03;3.67;;;20.80;52.10;;;;;;4867586;29;45046;-87
2023/10/09 09:05:23;;;;;;;4.97;3.60;;;20.80;51.40;;;;;;4844735;29;45340;-86
2023/10/09 09:07:49;;;;;;;5.63;3.75;;;20.80;51.40;;;;;;4854808;29;46187;-86
2023/10/09 09:10:21;;;;;;;6.13;3.42;;;20.80;51.40;;;;;;4851470;29;45324;-85
2023/10/09 09:13:00;;;;;;;4.68;3.50;;;20.80;51.50;;;;;;4862233;29;44748;-85
2023/10/09 09:15:32;;;;;;;4.80;3.60;;;20.80;51.50;;;;;;4849136;29;45352;-86
2023/10/09 09:18:10;;;;;;;6.50;3.70;;;20.80;51.50;;;;;;4878939;29;45275;-86
2023/10/09 09:20:39;;;;;;;4.90;3.80;;;20.80;51.50;;;;;;4856926;29;45896;-85
2023/10/09 09:23:05;;;;;;;6.13;3.83;;;20.80;51.50;;;;;;4864720;29;46341;-86
2023/10/09 09:25:45;;;;;;;5.53;3.70;;;20.80;51.50;;;;;;4863438;29;44762;-86
2023/10/09 09:28:21;;;;;;;5.00;3.73;;;20.80;51.50;;;;;;4865691;29;45784;-86
2023/10/09 09:30:51;;;;;;;5.33;3.70;;;20.80;51.50;;;;;;4816601;29;46057;-89
2023/10/09 09:33:20;;;;;;;6.40;3.58;;;20.80;51.50;;;;;;4847295;29;45135;-87
2023/10/09 09:36:02;;;;;;;5.57;3.63;;;20.80;51.50;;;;;;4850665;29;45600;-86
2023/10/09 09:38:28;;;;;;;5.88;3.83;;;20.80;51.50;;;;;;4850320;29;45167;-85
2023/10/09 09:40:57;;;;;;;4.72;3.22;;;20.80;51.50;;;;;;4855236;29;45730;-89
2023/10/09 09:43:25;;;;;;;5.20;3.25;;;20.80;51.50;;;;;;4865553;29;45020;-83
2023/10/09 09:45:51;;;;;;;5.00;3.60;;;20.80;51.50;;;;;;4850410;29;45195;-86
2023/10/09 09:48:17;;;;;;;4.10;3.33;;;20.70;51.50;;;;;;4867316;29;45299;-89
2023/10/09 09:50:45;;;;;;;5.07;3.33;;;20.80;51.50;;;;;;4881479;29;45395;-86
2023/10/09 09:53:16;;;;;;;5.20;3.35;;;20.80;51.50;;;;;;4869619;29;45068;-85
2023/10/09 09:55:57;;;;;;;6.28;3.47;;;20.80;51.50;;;;;;4871359;29;45234;-85
2023/10/09 09:58:43;;;;;;;5.77;3.50;;;20.80;51.50;;;;;;4866547;29;45398;-85
2023/10/09 10:01:16;;;;;;;5.25;3.50;;;20.80;51.50;;;;;;4849045;29;45307;-85
2023/10/09 10:03:48;;;;;;;6.03;3.35;;;20.80;51.50;;;;;;4842765;29;45581;-85
2023/10/09 10:06:13;;;;;;;6.43;3.40;;;20.80;51.50;;;;;;4848771;29;45196;-86
2023/10/09 10:08:41;;;;;;;4.97;3.30;;;20.80;51.50;;;;;;4852423;29;45308;-85
2023/10/09 10:11:13;;;;;;;6.33;3.30;;;20.80;51.50;;;;;;4845807;29;46467;-86
2023/10/09 10:13:42;;;;;;;5.07;3.67;;;20.80;51.50;;;;;;4843663;29;45501;-83
2023/10/09 10:16:13;;;;;;;6.32;3.70;;;20.80;51.50;;;;;;4862746;29;45107;-86
2023/10/09 10:19:06;;;;;;;4.43;3.10;;;20.80;51.60;;;;;;4868916;29;45708;-87
2023/10/09 10:21:37;;;;;;;4.93;3.33;;;20.80;51.60;;;;;;4866870;29;45205;-86
2023/10/09 10:24:09;;;;;;;4.80;3.30;;;20.80;51.60;;;;;;4855689;29;45225;-85
2023/10/09 10:26:36;;;;;;;4.88;3.35;;;20.70;51.50;;;;;;4859689;29;45366;-86
2023/10/09 10:29:33;;;;;;;4.80;3.30;;;20.80;51.60;;;;;;4853956;29;45227;-84
2023/10/09 10:32:06;;;;;;;5.07;3.45;;;20.80;51.60;;;;;;4876250;29;45678;-86
2023/10/09 10:34:56;;;;;;;5.80;3.60;;;20.80;51.60;;;;;;4865856;29;45379;-85
2023/10/09 10:37:51;;;;;;;4.33;3.30;;;20.80;51.60;;;;;;4868177;29;45507;-85
2023/10/09 10:40:56;;;;;;;4.90;3.20;;;20.80;51.60;;;;;;4864754;29;45145;-85
2023/10/09 10:43:47;;;;;;;5.07;3.50;;;20.80;51.60;;;;;;4869565;29;45437;-85
2023/10/09 10:46:23;;;;;;;4.37;3.17;;;20.80;51.60;;;;;;4864577;29;45182;-86
2023/10/09 10:48:59;;;;;;;4.25;3.00;;;20.80;51.60;;;;;;4854158;29;45490;-85
2023/10/09 10:51:47;;;;;;;5.20;3.35;;;20.80;51.60;;;;;;4876399;29;45084;-86
2023/10/09 10:57:01;;;;;;;4.20;3.33;;;20.80;51.60;;;;;;4854279;29;44618;-86
2023/10/09 10:59:42;;;;;;;5.13;3.25;;;20.80;51.60;;;;;;4856933;29;45357;-85
2023/10/09 11:02:22;;;;;;;4.45;3.20;;;20.80;51.60;;;;;;4847074;29;45832;-85
2023/10/09 11:05:14;;;;;;;4.57;2.70;;;20.80;51.60;;;;;;4870878;29;46315;-85
2023/10/09 11:07:34;;;;;;;5.15;3.00;;;20.80;51.60;;;;;;4860824;29;45356;-85
2023/10/09 11:12:39;;;;;;;5.50;3.10;;;20.80;51.60;;;;;;4871559;29;45482;-86
2023/10/09 11:18:09;;;;;;;4.70;3.20;;;20.80;51.70;;;;;;4880980;29;45032;-86
2023/10/09 11:20:36;;;;;;;6.07;3.20;;;20.80;51.60;;;;;;4885345;29;45148;-86
2023/10/09 11:25:33;;;;;;;4.90;3.00;;;20.80;51.70;;;;;;4881545;29;46083;-85
2023/10/09 11:28:15;;;;;;;5.57;3.08;;;20.80;51.70;;;;;;4873082;29;44899;-85
2023/10/09 11:30:40;;;;;;;7.03;3.47;;;20.80;51.70;;;;;;4852224;29;44967;-86
2023/10/09 11:33:14;;;;;;;4.45;3.08;;;20.80;51.70;;;;;;4869398;29;45417;-85
2023/10/09 11:35:42;;;;;;;6.53;3.30;;;20.80;51.70;;;;;;4870267;29;45730;-85
2023/10/09 11:38:21;;;;;;;4.07;3.05;;;20.80;51.70;;;;;;4880659;29;45092;-85
2023/10/09 11:43:25;;;;;;;5.03;3.08;;;20.80;51.70;;;;;;4872012;29;44919;-86
2023/10/09 11:45:55;;;;;;;4.95;3.25;;;20.80;51.70;;;;;;4867743;29;45539;-86
2023/10/09 11:48:22;;;;;;;5.60;3.15;;;20.80;51.80;;;;;;4851572;29;45200;-86
2023/10/09 11:51:21;;;;;;;6.68;3.60;;;20.80;51.70;;;;;;4861440;29;45156;-86
2023/10/09 11:53:54;;;;;;;5.17;3.30;;;20.80;51.70;;;;;;4871490;29;44942;-85
2023/10/09 11:56:22;;;;;;;4.20;2.90;;;20.80;51.70;;;;;;4863283;29;46419;-85
2023/10/09 11:58:49;;;;;;;5.38;3.20;;;20.80;51.70;;;;;;4877818;29;45211;-85
2023/10/09 12:01:20;;;;;;;5.22;3.40;;;20.80;51.70;;;;;;4830313;29;45123;-85
2023/10/09 12:03:53;;;;;;;5.15;3.15;;;20.80;51.70;;;;;;4837794;29;45242;-85
2023/10/09 12:06:23;;;;;;;4.88;3.25;;;20.80;51.70;;;;;;4834117;29;46290;-86
2023/10/09 12:08:49;;;;;;;4.93;2.90;;;20.80;51.80;;;;;;4852182;29;44973;-85
2023/10/09 12:11:22;;;;;;;4.93;3.00;;;20.80;51.80;;;;;;4843360;29;45404;-85
2023/10/09 12:13:48;;;;;;;4.60;2.80;;;20.80;51.80;;;;;;4848658;29;45191;-85
2023/10/09 12:16:15;;;;;;;4.32;2.67;;;20.80;51.80;;;;;;4857492;29;45176;-85
2023/10/09 12:18:42;;;;;;;4.60;2.78;;;20.80;51.80;;;;;;4850570;29;44925;-85
2023/10/09 12:21:15;;;;;;;5.18;2.70;;;20.80;51.80;;;;;;4861806;29;44961;-85
2023/10/09 12:23:47;;;;;;;6.55;3.10;;;20.80;51.80;;;;;;4876414;29;45679;-85
2023/10/09 12:26:14;;;;;;;4.85;2.90;;;20.80;51.80;;;;;;4842506;29;46488;-85
2023/10/09 12:28:49;;;;;;;5.25;3.13;;;20.80;51.80;;;;;;4880119;29;45241;-86
2023/10/09 12:31:16;;;;;;;4.32;3.00;;;20.80;51.80;;;;;;4849871;29;44938;-86
2023/10/09 12:33:41;;;;;;;4.47;2.90;;;20.80;51.80;;;;;;4861716;29;44814;-87
2023/10/09 12:36:19;;;;;;;5.00;3.05;;;20.80;51.80;;;;;;4846275;29;45867;-88
2023/10/09 12:38:50;;;;;;;5.40;3.30;;;20.80;51.80;;;;;;4848359;29;45422;-85
2023/10/09 12:41:26;;;;;;;4.65;2.83;;;20.80;51.80;;;;;;4862747;29;44690;-85
2023/10/09 12:43:52;;;;;;;6.03;3.17;;;20.80;51.80;;;;;;4848434;29;45758;-86
2023/10/09 12:46:22;;;;;;;5.43;2.97;;;20.80;51.80;;;;;;4828712;29;46017;-85
2023/10/09 12:48:49;;;;;;;5.10;3.08;;;20.80;51.90;;;;;;4866188;29;45445;-85
2023/10/09 12:51:17;;;;;;;4.10;2.80;;;20.80;51.90;;;;;;4804594;29;45413;-85
2023/10/09 12:53:44;;;;;;;4.63;2.90;;;20.80;51.90;;;;;;4808435;29;45275;-85
2023/10/09 12:56:11;;;;;;;5.07;2.97;;;20.80;51.90;;;;;;4847611;29;47181;-87
2023/10/09 12:58:38;;;;;;;5.63;2.87;;;20.80;51.90;;;;;;4853715;29;45312;-85
2023/10/09 13:01:11;;;;;;;6.63;3.00;;;20.80;51.90;;;;;;4854443;23;45508;-46
2023/10/09 13:03:40;;;;;;;5.82;3.17;;;20.80;51.90;;;;;;4889297;28;44779;-48
2023/10/09 13:06:12;;;;;;;5.03;3.13;;;20.80;51.90;;;;;;4889018;28;45725;-48
2023/10/09 13:08:40;;;;;;;5.37;2.90;;;20.80;51.90;;;;;;4882693;28;44865;-47
2023/10/09 13:11:11;;;;;;;5.68;3.15;;;20.80;51.90;;;;;;4889960;28;45486;-48
2023/10/09 13:13:41;;;;;;;5.43;2.87;;;20.80;51.90;;;;;;4894008;28;45252;-49
2023/10/09 13:16:14;;;;;;;6.63;3.20;;;20.80;51.90;;;;;;4864675;28;45256;-46
2023/10/09 13:18:40;;;;;;;5.10;2.97;;;20.80;52.00;;;;;;4897422;28;45764;-49
2023/10/09 13:21:06;;;;;;;5.45;3.17;;;20.80;52.00;;;;;;4873670;28;45341;-49
2023/10/09 13:23:46;;;;;;;5.67;3.03;;;20.80;51.90;;;;;;4883915;28;45778;-49
2023/10/09 13:26:23;;;;;;;5.00;2.78;;;20.80;52.00;;;;;;4890787;28;46124;-46
2023/10/09 13:28:49;;;;;;;5.80;3.23;;;20.80;52.00;;;;;;4902237;28;45232;-49
2023/10/09 13:31:15;;;;;;;5.03;3.00;;;20.80;51.90;;;;;;4882093;28;44731;-49
2023/10/09 13:33:42;;;;;;;5.60;3.20;;;20.80;52.00;;;;;;4866474;28;46180;-46
2023/10/09 13:36:16;;;;;;;6.25;3.40;;;20.80;52.00;;;;;;4873339;28;45155;-48
2023/10/09 13:38:43;;;;;;;6.32;3.50;;;20.80;52.00;;;;;;4900327;28;45186;-47
2023/10/09 13:41:12;;;;;;;6.82;3.25;;;20.80;52.00;;;;;;4892390;28;45811;-48
2023/10/09 13:43:40;;;;;;;5.65;3.15;;;20.80;52.00;;;;;;4896416;28;45307;-46
2023/10/09 13:46:08;;;;;;;5.90;3.30;;;20.80;52.00;;;;;;4880769;28;46396;-48
2023/10/09 13:48:38;;;;;;;5.80;3.23;;;20.80;52.00;;;;;;4895477;28;45305;-44
2023/10/09 13:51:07;;;;;;;5.88;3.53;;;20.80;52.00;;;;;;4887849;28;45300;-47
2023/10/09 13:53:35;;;;;;;6.75;3.45;;;20.80;52.00;;;;;;4895273;28;44840;-48
2023/10/09 13:56:02;;;;;;;6.15;3.33;;;20.80;52.00;;;;;;4892592;28;45835;-45
2023/10/09 13:58:28;;;;;;;5.82;3.20;;;20.80;52.60;;;;;;4902435;28;44854;-48
2023/10/09 14:00:53;;;;;;;7.53;3.70;;;20.80;52.00;;;;;;4884572;28;45778;-48
2023/10/09 14:03:23;;;;;;;7.63;3.47;;;20.80;52.10;;;;;;4891331;28;45260;-48
2023/10/09 14:05:54;;;;;;;5.88;3.55;;;20.80;52.00;;;;;;4865827;28;45784;-50
2023/10/09 14:08:22;;;;;;;6.75;3.60;;;20.80;52.00;;;;;;4899568;28;46128;-47
2023/10/09 14:10:51;;;;;;;6.28;3.20;;;20.90;52.10;;;;;;4879792;28;46790;-48
2023/10/09 14:13:25;;;;;;;5.18;3.20;;;20.90;52.10;;;;;;4895658;28;44834;-47
2023/10/09 14:15:51;;;;;;;6.47;3.63;;;20.80;52.00;;;;;;4867282;28;46294;-47
2023/10/09 14:18:17;;;;;;;5.65;3.42;;;20.90;52.10;;;;;;4897343;28;45253;-47
2023/10/09 14:20:43;;;;;;;6.82;3.17;;;20.90;52.10;;;;;;4841742;28;44769;-45
2023/10/09 14:23:12;;;;;;;6.80;3.80;;;20.90;52.10;;;;;;4902522;28;45243;-45
2023/10/09 14:25:39;;;;;;;5.55;3.53;;;20.80;52.10;;;;;;4873335;28;45225;-44
2023/10/09 14:28:08;;;;;;;7.27;3.50;;;20.80;52.10;;;;;;4889675;28;45102;-45
2023/10/09 14:30:43;;;;;;;7.72;3.30;;;20.80;52.10;;;;;;4865358;28;46478;-47
2023/10/09 14:33:12;;;;;;;5.38;3.22;;;20.80;52.10;;;;;;4899172;28;46319;-44
2023/10/09 14:35:41;;;;;;;6.25;3.15;;;20.80;52.10;;;;;;4883042;28;45408;-45
2023/10/09 14:38:13;;;;;;;4.78;3.25;;;20.90;52.10;;;;;;4903137;28;44663;-44
2023/10/09 14:40:43;;;;;;;6.50;3.30;;;20.80;52.10;;;;;;4869772;28;45597;-45
2023/10/09 14:43:18;;;;;;;5.35;3.10;;;20.90;52.10;;;;;;4896261;28;45061;-45
2023/10/09 14:45:48;;;;;;;8.15;3.47;;;20.80;52.10;;;;;;4878823;28;46315;-45
2023/10/09 14:48:17;;;;;;;6.55;3.40;;;20.90;52.10;;;;;;4877922;28;45244;-46
2023/10/09 14:50:48;;;;;;;4.97;3.00;;;20.90;52.10;;;;;;4881147;28;45231;-45
2023/10/09 14:53:15;;;;;;;5.75;3.47;;;20.90;52.10;;;;;;4901189;28;45933;-44
2023/10/09 14:55:41;;;;;;;4.88;3.00;;;20.80;52.10;;;;;;4887169;28;45530;-45
2023/10/09 14:58:11;;;;;;;5.10;3.50;;;20.80;52.10;;;;;;4896466;28;45344;-46
2023/10/09 15:00:36;;;;;;;6.07;3.13;;;20.80;52.10;;;;;;4881433;28;46032;-45
2023/10/09 15:03:03;;;;;;;5.80;3.30;;;20.80;52.10;;;;;;4898850;28;46259;-45
2023/10/09 15:05:31;;;;;;;6.22;3.08;;;20.90;52.10;;;;;;4888103;28;45652;-45
2023/10/09 15:07:57;;;;;;;6.53;3.20;;;20.90;52.20;;;;;;4873638;28;45570;-46
2023/10/09 15:10:24;;;;;;;6.03;3.30;;;20.90;52.10;;;;;;4865148;28;48636;-45
2023/10/09 15:12:49;;;;;;;6.68;3.50;;;20.80;52.10;;;;;;4896065;28;45305;-45
2023/10/09 15:15:15;;;;;;;6.13;3.47;;;20.90;52.10;;;;;;4882608;28;45540;-45
2023/10/09 15:17:45;;;;;;;5.80;3.30;;;20.80;52.10;;;;;;4884101;28;45239;-45
2023/10/09 15:20:14;;;;;;;5.70;3.50;;;20.90;52.20;;;;;;4855642;28;44852;-44
2023/10/09 15:22:44;;;;;;;5.47;3.23;;;20.90;52.10;;;;;;4891471;28;45624;-48
2023/10/09 15:25:14;;;;;;;5.97;3.67;;;20.80;52.10;;;;;;4889757;28;45804;-45
2023/10/09 15:27:40;;;;;;;6.75;3.72;;;20.90;52.20;;;;;;4886003;28;46036;-45
2023/10/09 15:30:13;;;;;;;5.22;3.83;;;20.90;52.10;;;;;;4895510;28;45199;-45
2023/10/09 15:32:41;;;;;;;5.82;4.30;;;20.80;52.10;;;;;;4866570;28;45381;-46
2023/10/09 15:35:09;;;;;;;7.50;4.80;;;20.90;52.20;;;;;;4867109;28;45359;-45
2023/10/09 15:37:40;;;;;;;6.63;4.43;;;20.80;52.10;;;;;;4889931;28;46154;-46
2023/10/09 15:40:13;;;;;;;7.63;4.47;;;20.80;52.10;;;;;;4885193;28;45792;-44
2023/10/09 15:42:40;;;;;;;8.33;5.00;;;20.90;52.10;;;;;;4869357;28;45497;-45
2023/10/09 15:45:09;;;;;;;6.93;4.88;;;20.90;52.20;;;;;;4893361;28;46591;-45
2023/10/09 15:47:36;;;;;;;7.88;5.10;;;20.90;52.20;;;;;;4843137;28;45026;-45
2023/10/09 15:50:09;;;;;;;7.38;5.10;;;20.80;52.10;;;;;;4893360;28;45388;-45
2023/10/09 15:52:34;;;;;;;8.43;5.20;;;20.80;52.10;;;;;;4875009;28;45144;-45
2023/10/09 15:55:00;;;;;;;8.40;5.15;;;20.90;52.20;;;;;;4895679;28;45391;-46
2023/10/09 15:57:27;;;;;;;8.13;5.13;;;20.90;52.20;;;;;;4881087;28;45258;-45
2023/10/09 15:59:52;;;;;;;9.98;6.38;;;20.80;52.20;;;;;;4870694;28;45753;-46
2023/10/09 16:02:21;;;;;;;7.97;5.50;;;20.90;52.20;;;;;;4868516;28;45374;-45
2023/10/09 16:04:46;;;;;;;10.48;5.95;;;20.80;52.10;;;;;;4890320;28;46347;-48
2023/10/09 16:07:13;;;;;;;8.85;5.88;;;20.90;52.20;;;;;;4886736;28;45131;-46
2023/10/09 16:09:39;;;;;;;9.83;6.20;;;20.90;52.20;;;;;;4890304;28;45751;-47
2023/10/09 16:12:09;;;;;;;10.40;6.45;;;20.90;52.20;;;;;;4890358;28;45232;-47
2023/10/09 16:14:35;;;;;;;10.03;6.43;;;20.80;52.20;;;;;;4884224;28;45674;-45
2023/10/09 16:17:02;;;;;;;9.67;6.57;;;20.90;52.20;;;;;;4878191;28;44683;-47
2023/10/09 16:19:32;;;;;;;10.00;6.45;;;20.80;52.20;;;;;;4893681;28;45348;-46
2023/10/09 16:21:58;;;;;;;10.18;6.60;;;20.80;52.20;;;;;;4883446;28;45128;-45
2023/10/09 16:24:24;;;;;;;9.03;6.20;;;20.80;52.20;;;;;;4865034;28;47070;-48
2023/10/09 16:26:51;;;;;;;8.52;6.03;;;20.90;52.20;;;;;;4870567;28;45601;-48
2023/10/09 16:29:16;;;;;;;10.38;6.75;;;20.90;52.20;;;;;;4860495;28;45306;-47
2023/10/09 16:31:42;;;;;;;10.03;6.77;;;20.90;52.20;;;;;;4854625;28;45454;-47
2023/10/09 16:34:08;;;;;;;9.57;6.67;;;20.90;52.30;;;;;;4870161;28;45917;-48
2023/10/09 16:36:35;;;;;;;8.50;6.17;;;20.90;52.20;;;;;;4878822;28;45330;-47
2023/10/09 16:39:01;;;;;;;9.32;6.45;;;20.90;52.20;;;;;;4884430;28;45375;-47
2023/10/09 16:41:27;;;;;;;9.95;7.03;;;20.90;52.20;;;;;;4843534;28;46153;-47
2023/10/09 16:43:53;;;;;;;11.55;7.00;;;20.90;52.20;;;;;;4882300;28;45771;-48
2023/10/09 16:46:22;;;;;;;8.80;6.60;;;20.90;52.30;;;;;;4870961;28;45249;-47
2023/10/09 16:48:57;;;;;;;10.00;7.30;;;20.80;52.20;;;;;;4865625;28;45683;-47
2023/10/09 16:51:23;;;;;;;10.25;7.30;;;20.80;52.20;;;;;;4864489;28;45614;-47
2023/10/09 16:53:52;;;;;;;11.33;7.00;;;20.80;52.20;;;;;;4884460;28;45392;-50
2023/10/09 16:56:20;;;;;;;11.30;7.07;;;20.90;52.20;;;;;;4855576;28;46428;-49
2023/10/09 16:58:46;;;;;;;9.95;6.50;;;20.90;52.30;;;;;;4866632;28;45328;-47
2023/10/09 17:01:12;;;;;;;9.88;6.85;;;20.80;52.20;;;;;;4873946;28;45257;-47
2023/10/09 17:03:41;;;;;;;10.23;6.55;;;20.90;52.30;;;;;;4858170;28;46457;-47
2023/10/09 17:06:09;;;;;;;11.68;7.00;;;20.90;52.20;;;;;;4873362;28;45299;-46
2023/10/09 17:08:47;;;;;;;10.10;6.90;;;20.80;52.20;;;;;;4866179;28;45265;-51
2023/10/09 17:11:13;;;;;;;11.30;7.25;;;20.90;52.30;;;;;;4853443;28;46064;-46
2023/10/09 17:13:47;;;;;;;10.23;6.97;;;20.90;52.30;;;;;;4883825;28;46564;-47
2023/10/09 17:16:23;;;;;;;9.73;6.82;;;20.90;52.30;;;;;;4871094;28;45695;-50
2023/10/09 17:18:49;;;;;;;10.38;7.25;;;20.80;52.30;;;;;;4864263;28;46030;-46
2023/10/09 17:21:15;;;;;;;9.95;6.88;;;20.80;52.20;;;;;;4862605;28;45523;-45
2023/10/09 17:23:47;;;;;;;9.87;6.90;;;20.90;52.30;;;;;;4880748;28;45770;-46
2023/10/09 17:26:14;;;;;;;10.38;6.95;;;20.90;52.30;;;;;;4864089;28;46080;-43
2023/10/09 17:28:40;;;;;;;9.98;6.88;;;20.90;52.30;;;;;;4865425;28;45296;-48
2023/10/09 17:31:06;;;;;;;9.18;6.70;;;20.80;52.20;;;;;;4855495;28;45477;-45
2023/10/09 17:33:31;;;;;;;10.15;6.97;;;20.90;52.30;;;;;;4884243;28;45064;-45
2023/10/09 17:36:00;;;;;;;9.45;7.28;;;20.90;52.30;;;;;;4861219;28;45620;-45
2023/10/09 17:38:28;;;;;;;11.05;7.07;;;20.90;52.30;;;;;;4859532;28;45357;-45